LICDLIPX

Guest
Details From LICD - Lampedusa
To LIPX - Villafranca
Flight Number -
Tags Standard
Created
Modified
Stats Distance 600 nm / 1,111 km
Max Altitude 0 ft / 0 m
Waypoints 7
Social Downloads 2
Likes 0
Share VATSIM

Download

Looking for another format? Having issues loading an existing format? Contact us
Advertisement - Login to hide

Notes

None

Route

LICD RITMO RONAB VALMA IFZ05 VIL25 LIPX

ID Type Via Altitude Latitude Longitude Leg Dist Tot Dist Heading (true) Name
O LICD APT - 0 ft / 0 m 35.49664˚ 12.60829˚ - 0 nm - -
RITMO FIX - 0 ft / 0 m 37.26500˚ 12.40833˚ 106 nm 106 nm 355° / 355° -
RONAB FIX - 0 ft / 0 m 39.86972˚ 11.89111˚ 158 nm 264 nm 351° / 351° -
VALMA FIX - 0 ft / 0 m 41.57722˚ 11.42139˚ 104 nm 369 nm 348° / 348° -
IFZ05 FIX - 0 ft / 0 m 43.74704˚ 11.11834˚ 130 nm 500 nm 354° / 354° -
VIL25 FIX - 0 ft / 0 m 44.99146˚ 10.92181˚ 75 nm 575 nm 354° / 353° -
O LIPX APT - 0 ft / 0 m 45.38732˚ 10.87633˚ 23 nm 599 nm 355° / 355° -

Altitude Profile

Advertisement - Login to hide

Weather


0- 5 10 15 20 25 30 35+ Temperature / ° C

Clouds and Precipitation
Forecast for 2017-12-15 00:00 UTC. Updated 5 minutes ago

Ground ~20,000 ft ~40,000 ft Winds

LICD

Details ICAO LICD (LMP)
Name LAMPEDUSA
Region Italy
Timezone Europe/Rome (UTC+1.0)
Stats Elevation 70 ft / 21 m (AMSL)
Location 35.497966° 12.618077°
Runways 1
Magnetic Variation 2.714° E

METAR

LICD 141850Z 23008KT 9999 FEW020 16/12 Q1020

Decode

TAF

TAF TAF LICD 141700Z 1418/1518 22014KT 9999 FEW020

Decode

Departure Runways

ID Width Length Bearing (true) Bearing (mag) Surface Threshold Offset Overrun Length
08 148 ft / 45 m 5,897 ft / 1,797 m 80.57° 77.86° Asphalt 0 ft / 0 m 0 ft / 0 m
26 148 ft / 45 m 5,897 ft / 1,797 m 260.59° 257.88° Asphalt 0 ft / 0 m 0 ft / 0 m

LIPX

Details ICAO LIPX (VRN)
Name VILLAFRANCA
Region Italy
Timezone Europe/Rome (UTC+1.0)
Stats Elevation 239 ft / 73 m (AMSL)
Location 45.396942° 10.890418°
Runways 1
Magnetic Variation 2.861° E

METAR

LIPX 141850Z 05006KT 010V130 4000 BR FEW010 SCT040 04/03 Q1004

Decode

TAF

Not found

Destination Runways

ID Width Length Bearing (true) Bearing (mag) Surface Threshold Offset Overrun Length
04 148 ft / 45 m 10,072 ft / 3,070 m 45.79° 42.93° Asphalt 189 ft / 58 m 815 ft / 248 m
22 148 ft / 45 m 10,072 ft / 3,070 m 225.81° 222.95° Asphalt 1,345 ft / 410 m 189 ft / 58 m

Approach Navaids

Runway Type Ident Frequency Range Bearing (true) Bearing (mag) Slope Elevation
04 Localiser IVF 110.10 MHz 18 nm / 33 km 45.76° 42.90° - 248 ft / 76 m (AMSL)
04 Glidescope IVF 110.10 MHz 10 nm / 19 km 45.80° 42.94° 3.00° 272 ft / 83 m (AMSL)
04 DME IVF 110.10 MHz 18 nm / 33 km - - - 248 ft / 76 m (AMSL)